Time;durP1;ratioP1;P1;durP2;ratioP2;P2;SDS_P1;SDS_P2;PMS_P1;PMS_P2;Temp;Humidity;BMP_temperature;BMP_pressure;BME280_temperature;BME280_humidity;BME280_pressure;Samples;Min_cycle;Max_cycle;Signal;HPM_P1;HPM_P2
2020/12/28 00:01:30;;;;;;;20.05;11.30;;;;;;;8.45;83.58;92616.72;4920379;29;20086;-43
2020/12/28 00:03:56;;;;;;;20.15;11.48;;;;;;;8.45;83.19;92630.47;4928187;29;20032;-44
2020/12/28 00:06:21;;;;;;;16.02;10.40;;;;;;;8.33;83.87;92624.66;4931014;29;20028;-44
2020/12/28 00:08:47;;;;;;;18.75;11.48;;;;;;;8.38;83.56;92623.69;4932206;29;20111;-44
2020/12/28 00:11:16;;;;;;;14.77;9.40;;;;;;;8.52;82.81;92620.72;4931959;29;20549;-46
2020/12/28 00:13:42;;;;;;;12.20;8.00;;;;;;;8.51;83.11;92619.28;4932723;29;20059;-43
2020/12/28 00:16:07;;;;;;;15.52;10.05;;;;;;;8.58;82.74;92616.47;4934966;29;20023;-44
2020/12/28 00:18:32;;;;;;;12.43;7.85;;;;;;;8.48;83.18;92618.38;4951442;29;20065;-43
2020/12/28 00:20:58;;;;;;;17.38;10.05;;;;;;;8.26;83.78;92619.16;4942598;29;20068;-44
2020/12/28 00:23:23;;;;;;;14.77;8.75;;;;;;;8.37;84.17;92614.00;4933806;29;20111;-43
2020/12/28 00:25:49;;;;;;;14.38;7.38;;;;;;;8.49;83.05;92591.59;4948295;29;20032;-43
2020/12/28 00:28:14;;;;;;;10.18;7.10;;;;;;;8.32;83.69;92583.94;4921152;29;20082;-43
2020/12/28 00:30:39;;;;;;;12.45;7.93;;;;;;;7.95;85.39;92579.25;4941771;29;20417;-44
2020/12/28 00:33:05;;;;;;;14.18;8.35;;;;;;;8.00;86.28;92575.56;4932270;29;20031;-44
2020/12/28 00:35:31;;;;;;;11.38;7.15;;;;;;;8.02;85.84;92581.97;4940337;29;20027;-44
2020/12/28 00:37:56;;;;;;;10.55;6.45;;;;;;;7.92;86.65;92575.59;4921441;29;20504;-44
2020/12/28 00:40:22;;;;;;;11.98;7.55;;;;;;;8.06;86.33;92579.56;4946517;28;20489;-45
2020/12/28 00:42:47;;;;;;;11.75;7.28;;;;;;;8.02;86.33;92573.72;4930786;29;20090;-44
2020/12/28 00:45:12;;;;;;;10.68;6.78;;;;;;;8.04;86.22;92573.16;4935876;29;20063;-44
2020/12/28 00:47:38;;;;;;;11.68;6.38;;;;;;;7.96;86.50;92566.97;4944559;29;20035;-44
2020/12/28 00:50:05;;;;;;;13.73;7.25;;;;;;;7.96;86.73;92545.72;4924413;29;20028;-44
2020/12/28 00:52:30;;;;;;;10.65;6.22;;;;;;;7.96;86.99;92544.97;4947280;29;20181;-43
2020/12/28 00:54:55;;;;;;;8.30;5.55;;;;;;;8.07;86.42;92555.56;4933267;29;20124;-44
2020/12/28 00:57:21;;;;;;;9.32;6.38;;;;;;;7.95;86.63;92571.00;4933893;29;20084;-44
2020/12/28 00:59:46;;;;;;;7.53;5.07;;;;;;;7.98;86.46;92576.13;4946597;29;20027;-44
2020/12/28 01:02:12;;;;;;;6.22;4.53;;;;;;;8.08;86.35;92570.78;4931636;29;20074;-44
2020/12/28 01:04:37;;;;;;;7.32;5.10;;;;;;;8.14;85.97;92555.53;4928170;29;20548;-44
2020/12/28 01:07:02;;;;;;;7.68;4.82;;;;;;;8.06;86.09;92554.09;4938654;29;20116;-43
2020/12/28 01:09:28;;;;;;;7.25;5.68;;;;;;;8.00;86.07;92548.06;4941485;29;20026;-45
2020/12/28 01:11:56;;;;;;;7.72;4.82;;;;;;;7.93;86.42;92544.06;4925055;29;20035;-46
2020/12/28 01:14:21;;;;;;;9.20;5.63;;;;;;;7.86;86.28;92544.09;4949063;29;20024;-46
2020/12/28 01:16:46;;;;;;;8.77;5.25;;;;;;;7.85;85.95;92546.09;4925660;29;20096;-45
2020/12/28 01:19:12;;;;;;;10.85;7.45;;;;;;;7.76;85.75;92543.16;4936847;29;20423;-45
2020/12/28 01:21:37;;;;;;;6.78;5.57;;;;;;;7.85;85.46;92540.59;4929066;29;20066;-44
2020/12/28 01:24:03;;;;;;;9.18;4.50;;;;;;;7.90;85.32;92536.94;4950716;29;20051;-45
2020/12/28 01:26:28;;;;;;;9.00;6.13;;;;;;;7.82;85.87;92535.50;4940270;29;20027;-44
2020/12/28 01:28:53;;;;;;;8.02;5.22;;;;;;;7.72;85.95;92524.31;4955332;29;20039;-45
2020/12/28 01:31:19;;;;;;;8.55;5.07;;;;;;;7.65;86.86;92528.53;4944616;29;20031;-44
2020/12/28 01:33:45;;;;;;;18.88;9.10;;;;;;;7.65;86.58;92533.31;4950362;29;20034;-45
2020/12/28 01:36:10;;;;;;;9.10;6.07;;;;;;;7.47;86.12;92506.97;4939369;29;20027;-46
2020/12/28 01:38:36;;;;;;;8.68;5.15;;;;;;;7.79;86.11;92539.34;4950256;29;20031;-45
2020/12/28 01:41:01;;;;;;;10.88;5.43;;;;;;;7.66;86.31;92532.03;4944327;29;20251;-44
2020/12/28 01:43:30;;;;;;;9.13;4.80;;;;;;;7.54;86.71;92528.94;4942518;29;20501;-45
2020/12/28 01:46:00;;;;;;;8.85;5.95;;;;;;;7.52;87.00;92533.50;4950748;29;20039;-45
2020/12/28 01:48:32;;;;;;;7.40;4.35;;;;;;;7.57;86.62;92522.34;4938714;29;20464;-45
2020/12/28 01:50:58;;;;;;;8.35;4.97;;;;;;;7.49;87.00;92524.34;4946423;29;20424;-44
2020/12/28 01:53:23;;;;;;;10.23;5.18;;;;;;;7.44;86.87;92519.06;4925380;29;20043;-45
2020/12/28 01:55:52;;;;;;;9.88;4.60;;;;;;;7.49;86.66;92509.91;4949715;29;20055;-46
2020/12/28 01:58:17;;;;;;;5.88;4.00;;;;;;;7.53;86.73;92508.25;4921198;29;20031;-45
2020/12/28 02:00:43;;;;;;;7.15;4.65;;;;;;;7.52;86.15;92508.78;4947815;29;20043;-44
2020/12/28 02:03:08;;;;;;;9.02;5.43;;;;;;;7.46;86.43;92511.00;4934764;29;20035;-45
2020/12/28 02:05:35;;;;;;;6.10;4.00;;;;;;;7.45;86.46;92496.53;4930420;29;20047;-45
2020/12/28 02:08:01;;;;;;;11.48;6.18;;;;;;;7.31;86.88;92500.03;4936926;29;20036;-44
2020/12/28 02:10:26;;;;;;;4.93;3.47;;;;;;;7.40;86.93;92494.72;4948920;29;20033;-45
2020/12/28 02:12:51;;;;;;;5.63;3.70;;;;;;;7.36;86.73;92502.56;4934876;29;20512;-45
2020/12/28 02:15:17;;;;;;;4.90;3.50;;;;;;;7.36;86.62;92497.09;4945123;29;20023;-46
2020/12/28 02:17:42;;;;;;;3.80;3.10;;;;;;;7.34;86.85;92507.16;4938637;29;20500;-45
2020/12/28 02:20:08;;;;;;;6.63;3.95;;;;;;;7.37;87.31;92501.31;4950239;29;20031;-46
2020/12/28 02:22:33;;;;;;;5.28;3.55;;;;;;;7.38;87.50;92515.78;4939258;29;20051;-46
2020/12/28 02:24:59;;;;;;;5.80;3.45;;;;;;;7.37;87.58;92512.28;4937375;29;20031;-44
2020/12/28 02:27:24;;;;;;;5.82;3.72;;;;;;;7.49;86.79;92510.63;4938366;29;20031;-46
2020/12/28 02:29:50;;;;;;;4.80;3.67;;;;;;;7.51;86.67;92513.53;4924094;29;20395;-45
2020/12/28 02:32:15;;;;;;;3.45;2.83;;;;;;;7.57;86.40;92516.84;4935676;29;20070;-47
2020/12/28 02:34:40;;;;;;;3.90;2.90;;;;;;;7.55;86.22;92502.94;4939838;29;20023;-45
2020/12/28 02:37:06;;;;;;;4.50;3.45;;;;;;;7.71;85.24;92481.63;4935088;29;20489;-45
2020/12/28 02:39:31;;;;;;;3.67;3.17;;;;;;;7.77;84.97;92484.94;4939989;29;20487;-43
2020/12/28 02:41:57;;;;;;;5.05;3.20;;;;;;;7.70;85.57;92476.69;4921835;29;20039;-43
2020/12/28 02:44:22;;;;;;;10.15;4.65;;;;;;;7.70;85.73;92474.69;4946714;29;20024;-44
2020/12/28 02:46:48;;;;;;;4.32;3.17;;;;;;;7.69;85.87;92467.72;4928498;29;20070;-45
2020/12/28 02:49:13;;;;;;;4.63;3.17;;;;;;;7.66;85.92;92474.34;4933751;29;20024;-43
2020/12/28 02:51:39;;;;;;;4.38;3.20;;;;;;;7.70;85.90;92482.19;4942392;29;20392;-45
2020/12/28 02:54:04;;;;;;;3.88;2.88;;;;;;;7.65;85.52;92478.34;4922294;29;20040;-44
2020/12/28 02:56:30;;;;;;;4.05;2.88;;;;;;;7.53;86.18;92486.28;4945564;29;20020;-44
2020/12/28 02:58:56;;;;;;;5.93;3.05;;;;;;;7.56;86.14;92473.44;4930946;29;20027;-44
2020/12/28 03:01:21;;;;;;;7.65;3.10;;;;;;;7.63;85.87;92475.44;4938137;29;20035;-44
2020/12/28 03:03:46;;;;;;;6.50;3.15;;;;;;;7.57;86.07;92474.91;4920135;29;20091;-44
2020/12/28 03:06:12;;;;;;;3.10;2.30;;;;;;;7.53;85.55;92466.31;4947214;29;20037;-43
2020/12/28 03:08:37;;;;;;;2.90;2.20;;;;;;;7.49;85.23;92479.69;4926024;29;20420;-44
2020/12/28 03:11:03;;;;;;;4.28;2.63;;;;;;;7.54;84.84;92482.22;4943843;29;20036;-44
2020/12/28 03:13:28;;;;;;;4.13;2.97;;;;;;;7.44;84.38;92489.59;4939429;29;20113;-43
2020/12/28 03:15:53;;;;;;;7.38;3.03;;;;;;;7.31;85.01;92489.78;4923082;29;20131;-46
2020/12/28 03:18:19;;;;;;;3.75;2.22;;;;;;;7.37;84.79;92489.59;4946877;29;20470;-45
2020/12/28 03:20:44;;;;;;;2.75;2.50;;;;;;;7.33;84.87;92498.19;4927792;29;20033;-43
2020/12/28 03:23:10;;;;;;;4.28;2.28;;;;;;;7.29;84.51;92508.09;4934052;29;20052;-44
2020/12/28 03:25:35;;;;;;;4.38;2.53;;;;;;;7.23;84.98;92515.78;4940800;29;20027;-44
2020/12/28 03:28:00;;;;;;;3.80;2.83;;;;;;;7.19;84.57;92518.16;4922021;29;20039;-44
2020/12/28 03:30:26;;;;;;;5.05;2.50;;;;;;;7.17;85.08;92528.97;4945845;29;20028;-43
2020/12/28 03:32:51;;;;;;;3.75;2.95;;;;;;;7.13;84.87;92528.56;4929492;29;20184;-44
2020/12/28 03:35:17;;;;;;;5.18;2.95;;;;;;;7.14;84.62;92528.03;4931982;29;20025;-44
2020/12/28 03:37:42;;;;;;;4.35;2.50;;;;;;;7.09;84.51;92528.94;4937223;29;20027;-44
2020/12/28 03:40:07;;;;;;;4.97;3.30;;;;;;;7.08;84.47;92524.00;4944798;29;20024;-45
2020/12/28 03:42:33;;;;;;;6.32;2.95;;;;;;;7.04;84.50;92520.91;4942974;29;20390;-44
2020/12/28 03:44:58;;;;;;;4.93;2.55;;;;;;;7.05;84.90;92512.13;4930532;29;20504;-44
2020/12/28 03:47:24;;;;;;;4.20;2.70;;;;;;;7.08;85.13;92518.53;4953144;29;20077;-45
2020/12/28 03:49:49;;;;;;;5.15;2.78;;;;;;;7.09;84.66;92511.75;4953278;29;20043;-44
2020/12/28 03:52:14;;;;;;;4.15;2.55;;;;;;;7.07;84.41;92520.53;4943413;29;20464;-46
2020/12/28 03:54:40;;;;;;;5.28;2.50;;;;;;;7.01;84.24;92524.72;4934250;29;20024;-44
2020/12/28 03:57:05;;;;;;;7.40;3.00;;;;;;;7.03;84.50;92527.66;4933565;29;20409;-44
2020/12/28 03:59:31;;;;;;;10.25;4.35;;;;;;;6.92;84.52;92528.75;4934180;29;20481;-46
2020/12/28 04:01:56;;;;;;;5.32;3.20;;;;;;;7.03;84.19;92528.41;4934158;29;20067;-45
2020/12/28 04:04:21;;;;;;;6.00;3.30;;;;;;;6.84;84.24;92531.47;4933880;29;20091;-45
2020/12/28 04:06:47;;;;;;;6.50;3.03;;;;;;;6.74;84.66;92522.31;4933820;29;20427;-45
2020/12/28 04:09:12;;;;;;;5.40;3.65;;;;;;;6.84;84.50;92531.47;4934191;29;20064;-45
2020/12/28 04:11:38;;;;;;;5.28;3.42;;;;;;;6.80;84.59;92541.34;4934028;29;20127;-44
2020/12/28 04:14:03;;;;;;;6.53;3.58;;;;;;;6.77;84.82;92553.41;4933645;29;20039;-45
2020/12/28 04:16:28;;;;;;;5.55;3.95;;;;;;;6.74;84.84;92557.97;4935938;29;20024;-45
2020/12/28 04:18:54;;;;;;;5.88;3.50;;;;;;;6.75;85.20;92553.22;4937203;29;20019;-44
2020/12/28 04:21:19;;;;;;;6.90;3.00;;;;;;;6.70;85.04;92565.84;4920205;29;20385;-44
2020/12/28 04:23:45;;;;;;;4.05;3.13;;;;;;;6.67;84.99;92555.25;4937122;29;20501;-44
2020/12/28 04:26:10;;;;;;;5.35;3.33;;;;;;;6.65;84.67;92572.22;4937148;29;20028;-44
2020/12/28 04:28:36;;;;;;;5.35;3.30;;;;;;;6.67;84.44;92574.44;4937217;29;20032;-45
2020/12/28 04:31:01;;;;;;;6.95;3.90;;;;;;;6.66;84.45;92573.69;4936908;29;20019;-45
2020/12/28 04:33:26;;;;;;;14.02;4.32;;;;;;;6.72;83.73;92571.50;4937061;29;20032;-45
2020/12/28 04:35:52;;;;;;;5.40;3.88;;;;;;;6.67;83.52;92575.16;4936942;29;20511;-44
2020/12/28 04:38:17;;;;;;;7.15;3.38;;;;;;;6.66;83.16;92567.47;4936998;29;20032;-44
2020/12/28 04:40:43;;;;;;;7.50;4.43;;;;;;;6.55;82.82;92562.31;4936280;29;20079;-44
2020/12/28 04:43:13;;;;;;;9.60;5.78;;;;;;;6.38;83.00;92560.09;4936927;29;20031;-43
2020/12/28 04:45:39;;;;;;;9.73;5.50;;;;;;;6.33;83.02;92560.22;4934445;29;20031;-44
2020/12/28 04:48:08;;;;;;;12.68;5.90;;;;;;;6.22;83.40;92561.28;4936934;29;20068;-43
2020/12/28 04:50:35;;;;;;;9.45;5.93;;;;;;;6.23;83.49;92575.72;4936730;29;20417;-43
2020/12/28 04:53:03;;;;;;;11.20;5.65;;;;;;;6.06;83.37;92554.28;4936789;29;20027;-44
2020/12/28 04:55:28;;;;;;;8.65;4.68;;;;;;;6.06;83.40;92563.22;4936714;29;20505;-44
2020/12/28 04:57:54;;;;;;;9.27;4.72;;;;;;;5.83;85.00;92556.13;4936689;29;20023;-44
2020/12/28 05:00:19;;;;;;;6.65;4.00;;;;;;;5.91;84.16;92559.69;4936555;29;20464;-44
2020/12/28 05:02:46;;;;;;;10.07;4.97;;;;;;;5.89;84.39;92564.97;4936570;29;20024;-44
2020/12/28 05:05:11;;;;;;;10.07;4.63;;;;;;;5.76;83.89;92571.25;4936676;29;20111;-44
2020/12/28 05:07:37;;;;;;;7.03;3.95;;;;;;;5.55;84.25;92578.78;4936709;29;20484;-44
2020/12/28 05:10:03;;;;;;;4.43;3.80;;;;;;;5.65;83.77;92585.22;4936990;29;20103;-44
2020/12/28 05:12:28;;;;;;;5.65;3.38;;;;;;;5.78;83.46;92589.91;4936859;29;20481;-44
2020/12/28 05:15:09;;;;;;;5.35;3.20;;;;;;;5.71;82.93;92591.31;4936911;29;20020;-43
2020/12/28 05:17:34;;;;;;;11.32;5.75;;;;;;;5.69;83.09;92593.88;4936538;29;20027;-44
2020/12/28 05:20:01;;;;;;;10.82;6.15;;;;;;;5.67;83.51;92592.94;4936967;29;20030;-44
2020/12/28 05:22:27;;;;;;;16.70;7.97;;;;;;;5.45;84.43;92594.22;4935914;29;20054;-44
2020/12/28 05:24:53;;;;;;;24.25;11.27;;;;;;;5.52;84.63;92599.03;4936547;29;20079;-44
2020/12/28 05:27:19;;;;;;;24.33;12.30;;;;;;;5.44;84.69;92592.75;4935384;29;20027;-44
2020/12/28 05:29:45;;;;;;;30.70;13.25;;;;;;;5.48;85.04;92595.16;4936490;29;20468;-44
2020/12/28 05:32:14;;;;;;;28.48;12.65;;;;;;;5.45;85.96;92596.97;4936361;29;20488;-45
2020/12/28 05:34:43;;;;;;;19.47;10.70;;;;;;;5.62;85.73;92600.00;4936469;29;20028;-45
2020/12/28 05:37:08;;;;;;;23.30;11.48;;;;;;;5.64;85.54;92602.94;4936190;29;20286;-44
2020/12/28 05:39:36;;;;;;;21.10;10.77;;;;;;;5.69;85.66;92610.28;4936547;29;20032;-45
2020/12/28 05:42:10;;;;;;;25.85;12.40;;;;;;;5.75;86.63;92615.63;4936180;29;20059;-45
2020/12/28 05:44:41;;;;;;;19.98;9.95;;;;;;;5.91;87.33;92620.66;4936386;29;20027;-45
2020/12/28 05:47:08;;;;;;;17.60;8.82;;;;;;;5.96;87.84;92619.06;4936221;29;20066;-45
2020/12/28 05:49:42;;;;;;;11.93;7.00;;;;;;;6.09;87.77;92611.47;4936285;29;20023;-45
2020/12/28 05:52:09;;;;;;;7.00;4.35;;;;;;;6.17;87.88;92617.00;4935977;29;20090;-44
2020/12/28 05:54:38;;;;;;;5.65;3.80;;;;;;;6.20;88.50;92628.88;4936115;29;20039;-43
2020/12/28 05:57:04;;;;;;;14.65;6.80;;;;;;;6.32;88.19;92630.03;4936085;29;20055;-43
2020/12/28 05:59:31;;;;;;;26.83;14.63;;;;;;;6.42;87.76;92634.47;4936015;29;20118;-41
2020/12/28 06:01:57;;;;;;;37.70;19.90;;;;;;;6.47;86.92;92630.13;4936006;29;20062;-41
2020/12/28 06:04:23;;;;;;;30.33;15.77;;;;;;;6.58;85.80;92636.00;4935880;29;20023;-41
2020/12/28 06:06:48;;;;;;;27.48;14.32;;;;;;;6.51;85.82;92646.94;4935815;29;20412;-42
2020/12/28 06:09:18;;;;;;;17.25;8.73;;;;;;;6.41;86.00;92654.22;4935906;29;20020;-42
2020/12/28 06:11:43;;;;;;;13.30;8.02;;;;;;;6.56;85.80;92655.00;4930359;29;20035;-42
2020/12/28 06:14:12;;;;;;;10.30;6.40;;;;;;;6.61;85.90;92662.34;4920984;29;20492;-42
2020/12/28 06:16:38;;;;;;;13.48;7.90;;;;;;;6.67;85.39;92651.22;4935699;29;20078;-46
2020/12/28 06:19:03;;;;;;;13.35;7.45;;;;;;;6.78;85.05;92659.13;4918744;29;20023;-45
2020/12/28 06:21:37;;;;;;;33.85;15.02;;;;;;;6.78;85.14;92659.84;4935457;29;20496;-44
2020/12/28 06:24:03;;;;;;;52.70;23.10;;;;;;;6.79;84.59;92660.59;4935300;29;20101;-43
2020/12/28 06:26:29;;;;;;;50.97;22.55;;;;;;;6.81;84.23;92663.53;4933873;29;20027;-44
2020/12/28 06:29:05;;;;;;;36.08;17.55;;;;;;;6.83;83.87;92664.47;4935422;29;20027;-44
2020/12/28 06:31:30;;;;;;;30.90;15.55;;;;;;;6.93;83.66;92680.41;4935544;29;20031;-45
2020/12/28 06:33:56;;;;;;;34.97;18.50;;;;;;;6.84;83.77;92667.94;4935250;29;20031;-44
2020/12/28 06:36:21;;;;;;;34.10;19.40;;;;;;;7.03;84.00;92689.59;4935229;29;20079;-44
2020/12/28 06:38:59;;;;;;;36.58;18.50;;;;;;;7.08;84.58;92694.88;4934857;29;20027;-44
2020/12/28 06:41:29;;;;;;;19.73;12.13;;;;;;;7.08;84.40;92692.16;4935534;29;20028;-45
2020/12/28 06:44:01;;;;;;;10.18;6.78;;;;;;;7.28;83.90;92696.78;4935393;29;20031;-43
2020/12/28 06:46:28;;;;;;;25.92;10.05;;;;;;;7.36;83.94;92681.06;4935102;29;20572;-43
2020/12/28 06:48:54;;;;;;;7.85;5.65;;;;;;;7.60;83.69;92685.31;4935028;29;20493;-44
2020/12/28 06:51:22;;;;;;;8.43;5.03;;;;;;;7.70;83.13;92688.25;4935212;29;20408;-44
2020/12/28 06:53:56;;;;;;;13.68;6.20;;;;;;;7.75;82.29;92663.34;4935038;29;20090;-45
2020/12/28 06:56:25;;;;;;;7.57;5.40;;;;;;;7.94;81.60;92663.72;4934995;29;20082;-44
2020/12/28 06:58:58;;;;;;;;;;;;;;;8.09;81.05;92671.94;4935496;29;20028;-45
2020/12/28 07:01:24;;;;;;;12.00;8.32;;;;;;;8.26;80.56;92674.88;4934604;29;19970;-45
2020/12/28 07:03:50;;;;;;;33.88;18.08;;;;;;;8.42;79.92;92686.59;4934836;29;20086;-44
2020/12/28 07:06:17;;;;;;;14.27;8.65;;;;;;;8.47;79.27;92704.19;4916683;29;20477;-44
2020/12/28 07:08:42;;;;;;;23.70;13.63;;;;;;;8.62;79.57;92696.63;4934454;29;20031;-44
2020/12/28 07:11:08;;;;;;;17.95;10.15;;;;;;;8.92;78.59;92693.06;4934801;29;20086;-45
2020/12/28 07:13:33;;;;;;;10.07;5.63;;;;;;;9.10;77.75;92692.63;4934405;29;20023;-45
2020/12/28 07:16:05;;;;;;;8.13;5.57;;;;;;;9.11;76.79;92680.31;4934695;29;20020;-43
2020/12/28 07:18:31;;;;;;;19.73;11.27;;;;;;;8.92;76.21;92680.00;4934639;29;20028;-43
2020/12/28 07:20:57;;;;;;;5.03;4.03;;;;;;;8.65;76.10;92661.78;4934516;29;20078;-43
2020/12/28 07:23:26;;;;;;;3.67;3.00;;;;;;;8.60;76.60;92685.44;4934450;29;20142;-43
2020/12/28 07:26:07;;;;;;;9.23;5.30;;;;;;;8.34;77.89;92699.63;4934481;29;20569;-43
2020/12/28 07:28:34;;;;;;;11.20;4.65;;;;;;;8.27;78.87;92706.59;4934433;29;20513;-43
2020/12/28 07:31:03;;;;;;;3.00;2.28;;;;;;;8.20;78.96;92704.56;4934337;29;20508;-45
2020/12/28 07:33:29;;;;;;;2.20;1.95;;;;;;;8.21;78.86;92702.53;4934017;29;20095;-42
2020/12/28 07:36:12;;;;;;;4.53;2.40;;;;;;;8.31;78.28;92706.25;4917493;29;20027;-43
2020/12/28 07:38:38;;;;;;;3.63;2.28;;;;;;;8.17;78.24;92702.91;4934485;29;20398;-45
2020/12/28 07:41:04;;;;;;;3.30;2.33;;;;;;;8.06;78.99;92708.03;4934305;29;20031;-43
2020/12/28 07:43:29;;;;;;;4.15;2.00;;;;;;;8.15;78.15;92694.47;4934202;29;20416;-43
2020/12/28 07:46:29;;;;;;;3.28;1.95;;;;;;;8.37;78.50;92715.03;4934052;29;20023;-45
2020/12/28 07:48:56;;;;;;;10.73;5.38;;;;;;;8.65;77.41;92723.03;4915853;29;20066;-45
2020/12/28 07:51:24;;;;;;;4.40;2.75;;;;;;;8.89;76.31;92719.69;4915335;29;20035;-43
2020/12/28 07:53:55;;;;;;;4.50;2.47;;;;;;;9.52;75.51;92719.59;4933532;29;20043;-44
2020/12/28 07:56:28;;;;;;;3.78;2.92;;;;;;;10.21;71.73;92704.06;4916244;29;20051;-44
2020/12/28 07:59:15;;;;;;;3.53;2.45;;;;;;;11.71;67.19;92712.03;4932980;29;20028;-45
2020/12/28 08:01:45;;;;;;;3.67;2.17;;;;;;;12.77;62.07;92722.19;4932739;29;20035;-45
2020/12/28 08:04:16;;;;;;;17.52;8.45;;;;;;;13.77;58.04;92709.38;4933078;29;20028;-45
2020/12/28 08:06:42;;;;;;;2.60;2.13;;;;;;;14.27;56.49;92709.34;4932668;29;20424;-48
2020/12/28 08:09:07;;;;;;;4.10;3.03;;;;;;;15.22;53.81;92705.31;4929298;29;20028;-46
2020/12/28 08:11:33;;;;;;;2.97;2.17;;;;;;;15.59;50.71;92706.34;4932905;29;20135;-45
2020/12/28 08:13:59;;;;;;;2.13;1.42;;;;;;;15.89;50.91;92685.25;4932750;29;20024;-46
2020/12/28 08:16:27;;;;;;;1.23;1.10;;;;;;;16.17;47.86;92689.78;4932801;29;20039;-45
2020/12/28 08:18:54;;;;;;;4.72;1.88;;;;;;;16.35;48.98;92698.53;4932707;29;20090;-45
2020/12/28 08:21:21;;;;;;;2.13;1.73;;;;;;;16.42;47.31;92698.28;4932816;29;20051;-46
2020/12/28 08:23:57;;;;;;;3.72;1.50;;;;;;;16.85;45.54;92703.63;4932251;29;20055;-44
2020/12/28 08:26:27;;;;;;;1.13;1.00;;;;;;;17.18;44.83;92718.84;4932043;29;20071;-47
2020/12/28 08:28:55;;;;;;;3.70;1.95;;;;;;;17.34;44.76;92719.06;4932558;29;20063;-45
2020/12/28 08:31:28;;;;;;;1.05;0.85;;;;;;;17.24;43.52;92702.44;4932773;29;20036;-44
2020/12/28 08:34:06;;;;;;;3.20;1.38;;;;;;;17.53;43.50;92673.38;4932699;29;20031;-44
2020/12/28 08:36:33;;;;;;;2.22;1.40;;;;;;;17.61;42.96;92680.16;4932672;29;20020;-44
2020/12/28 08:39:09;;;;;;;1.48;1.13;;;;;;;17.28;43.32;92679.66;4932617;29;20039;-44
2020/12/28 08:41:34;;;;;;;1.00;0.90;;;;;;;17.00;43.72;92675.94;4931891;29;20110;-44
2020/12/28 08:44:00;;;;;;;1.45;1.15;;;;;;;16.26;45.23;92675.03;4932416;29;20023;-45
2020/12/28 08:46:25;;;;;;;2.05;1.70;;;;;;;16.00;46.76;92650.41;4932431;29;20066;-49
2020/12/28 08:48:51;;;;;;;1.95;1.40;;;;;;;16.07;46.88;92658.53;4932517;29;20408;-48
2020/12/28 08:51:19;;;;;;;1.95;1.42;;;;;;;16.42;46.33;92655.75;4932339;29;20428;-50
2020/12/28 08:53:48;;;;;;;0.90;0.82;;;;;;;16.75;44.11;92661.19;4932240;29;20034;-43
2020/12/28 08:56:14;;;;;;;2.97;1.73;;;;;;;17.05;44.90;92654.59;4931957;29;20030;-44
2020/12/28 08:58:39;;;;;;;1.10;1.00;;;;;;;17.53;41.48;92640.63;4922075;29;20495;-44
2020/12/28 09:01:05;;;;;;;2.33;0.70;;;;;;;18.11;39.99;92657.78;4917455;29;20035;-44
2020/12/28 09:03:34;;;;;;;6.85;4.03;;;;;;;18.15;39.30;92644.03;4916067;29;20032;-46
2020/12/28 09:05:59;;;;;;;3.13;2.40;;;;;;;18.45;39.89;92655.38;4921461;29;20035;-48
2020/12/28 09:08:25;;;;;;;2.50;2.10;;;;;;;18.80;38.52;92630.63;4935522;29;20032;-47
2020/12/28 09:10:50;;;;;;;3.58;2.80;;;;;;;18.39;39.28;92627.81;4951419;29;20087;-45
2020/12/28 09:13:16;;;;;;;2.80;2.25;;;;;;;18.48;39.18;92615.72;4947056;29;20034;-44
2020/12/28 09:15:41;;;;;;;1.25;1.15;;;;;;;18.67;38.55;92608.97;4954746;29;20511;-44
2020/12/28 09:18:06;;;;;;;1.80;1.67;;;;;;;19.14;38.53;92607.19;4923077;29;20052;-43
2020/12/28 09:20:32;;;;;;;7.72;6.32;;;;;;;19.76;37.92;92603.88;4916518;29;20031;-44
2020/12/28 09:22:57;;;;;;;2.00;1.23;;;;;;;19.74;35.72;92617.78;4916318;29;20051;-47
2020/12/28 09:25:23;;;;;;;1.17;1.08;;;;;;;19.79;36.46;92621.50;4916194;29;20035;-43
2020/12/28 09:27:48;;;;;;;1.02;0.93;;;;;;;20.13;35.38;92623.81;4916532;29;20119;-45
2020/12/28 09:30:13;;;;;;;1.63;0.80;;;;;;;19.48;36.46;92617.25;4924275;29;20031;-44
2020/12/28 09:32:40;;;;;;;1.02;0.60;;;;;;;19.55;35.86;92629.47;4930705;29;20031;-44
2020/12/28 09:35:06;;;;;;;0.85;0.80;;;;;;;19.60;35.20;92623.44;4931973;29;20087;-44
2020/12/28 09:37:31;;;;;;;1.27;1.00;;;;;;;19.15;35.78;92628.19;4933357;29;20032;-43
2020/12/28 09:39:57;;;;;;;1.88;1.30;;;;;;;18.71;37.07;92626.00;4932819;29;20421;-44
2020/12/28 09:42:23;;;;;;;0.80;0.80;;;;;;;19.14;35.99;92626.03;4933314;29;20424;-45
2020/12/28 09:44:48;;;;;;;0.70;0.65;;;;;;;19.74;35.41;92623.38;4925794;29;20024;-46
2020/12/28 09:47:13;;;;;;;1.00;0.80;;;;;;;20.58;34.50;92620.94;4934077;29;20531;-45
2020/12/28 09:49:39;;;;;;;0.70;0.70;;;;;;;20.48;33.84;92617.69;4930326;29;20071;-47
2020/12/28 09:52:04;;;;;;;0.98;0.88;;;;;;;20.39;33.87;92621.47;4927674;29;20495;-50
2020/12/28 09:54:30;;;;;;;1.30;0.98;;;;;;;19.87;36.51;92619.06;4936011;29;20035;-45
2020/12/28 09:56:55;;;;;;;3.60;0.90;;;;;;;20.45;34.11;92613.34;4932431;29;20019;-47
2020/12/28 09:59:21;;;;;;;1.77;0.80;;;;;;;20.88;34.13;92616.63;4932841;29;20024;-48
2020/12/28 10:01:46;;;;;;;1.45;1.15;;;;;;;21.07;33.05;92613.25;4939341;29;20031;-45
2020/12/28 10:04:12;;;;;;;1.63;1.23;;;;;;;21.22;32.95;92623.00;4938540;29;20024;-46
2020/12/28 10:06:40;;;;;;;1.35;1.25;;;;;;;21.70;31.98;92613.03;4935587;29;20059;-43
2020/12/28 10:09:08;;;;;;;1.80;1.00;;;;;;;21.77;32.85;92617.50;4924090;29;20078;-43
2020/12/28 10:11:34;;;;;;;6.13;1.10;;;;;;;20.11;34.95;92612.50;4946896;29;20023;-45
2020/12/28 10:13:59;;;;;;;3.13;1.48;;;;;;;20.39;36.04;92605.41;4925596;29;20110;-45
2020/12/28 10:16:29;;;;;;;1.95;0.70;;;;;;;20.58;31.49;92598.50;4954001;29;20510;-46
2020/12/28 10:18:55;;;;;;;1.23;1.00;;;;;;;21.21;31.08;92595.56;4951174;29;20154;-49
2020/12/28 10:21:26;;;;;;;1.30;1.20;;;;;;;21.40;31.09;92592.13;4923067;29;20027;-45
2020/12/28 10:23:52;;;;;;;0.63;0.60;;;;;;;20.87;31.80;92580.78;4947123;29;20047;-45
2020/12/28 10:26:25;;;;;;;1.35;1.15;;;;;;;21.54;29.85;92575.84;4937835;29;20035;-45
2020/12/28 10:28:52;;;;;;;1.65;0.90;;;;;;;21.20;30.84;92571.66;4939711;29;20031;-45
2020/12/28 10:31:19;;;;;;;4.50;1.20;;;;;;;20.96;32.10;92568.56;4921747;29;20024;-45
2020/12/28 10:33:45;;;;;;;1.10;1.00;;;;;;;20.35;32.09;92559.63;4918491;29;20023;-45
2020/12/28 10:36:18;;;;;;;1.20;0.98;;;;;;;19.12;37.01;92558.78;4940740;29;20019;-44
2020/12/28 10:38:44;;;;;;;1.35;1.10;;;;;;;19.17;36.07;92543.63;4948122;29;20397;-46
2020/12/28 10:41:11;;;;;;;6.78;1.30;;;;;;;20.00;34.86;92542.63;4951788;29;20047;-45
2020/12/28 10:43:37;;;;;;;8.77;1.92;;;;;;;20.57;33.67;92540.25;4923355;29;20042;-45
2020/12/28 10:46:05;;;;;;;2.03;1.23;;;;;;;20.70;33.28;92542.94;4926205;29;20035;-45
2020/12/28 10:48:30;;;;;;;1.15;1.05;;;;;;;19.65;34.66;92531.94;4933713;29;20034;-45
2020/12/28 10:50:56;;;;;;;3.22;0.95;;;;;;;18.55;37.40;92530.09;4940320;29;20035;-45
2020/12/28 10:53:21;;;;;;;2.85;1.02;;;;;;;18.97;37.34;92532.19;4932279;29;20054;-46
2020/12/28 10:55:47;;;;;;;1.13;1.02;;;;;;;19.28;36.05;92512.69;4936072;29;20489;-46
2020/12/28 10:58:13;;;;;;;2.03;1.73;;;;;;;19.35;35.18;92522.84;4932467;29;20508;-46
2020/12/28 11:00:40;;;;;;;3.72;1.27;;;;;;;19.20;35.51;92522.78;4930870;29;20035;-45
2020/12/28 11:03:05;;;;;;;2.58;1.30;;;;;;;18.79;35.25;92528.50;4940751;29;20059;-45
2020/12/28 11:05:31;;;;;;;1.48;1.05;;;;;;;18.30;37.33;92513.44;4945475;29;20066;-45
2020/12/28 11:07:56;;;;;;;1.45;0.95;;;;;;;18.72;37.01;92529.56;4931168;29;20102;-45
2020/12/28 11:10:22;;;;;;;1.25;1.15;;;;;;;19.21;35.90;92524.94;4933872;29;20035;-46
2020/12/28 11:12:47;;;;;;;1.58;1.33;;;;;;;19.02;36.22;92524.69;4936346;29;20031;-45
2020/12/28 11:15:13;;;;;;;1.25;1.05;;;;;;;19.04;36.53;92525.53;4922273;29;20516;-46
2020/12/28 11:17:38;;;;;;;3.33;1.92;;;;;;;19.23;36.02;92518.75;4945869;29;20035;-45
2020/12/28 11:20:04;;;;;;;1.10;0.90;;;;;;;18.84;36.06;92521.78;4939342;29;20023;-46
2020/12/28 11:22:29;;;;;;;1.52;0.93;;;;;;;18.90;36.02;92522.06;4942389;29;20091;-46
2020/12/28 11:24:54;;;;;;;1.98;1.70;;;;;;;18.65;37.14;92508.97;4928878;29;20727;-45
2020/12/28 11:27:20;;;;;;;0.90;0.90;;;;;;;19.09;36.25;92513.19;4935938;29;20543;-45
2020/12/28 11:29:45;;;;;;;1.63;0.90;;;;;;;19.37;35.48;92489.34;4931777;29;20024;-47
2020/12/28 11:32:11;;;;;;;0.88;0.85;;;;;;;18.95;37.54;92520.19;4934338;29;20012;-48
2020/12/28 11:34:36;;;;;;;1.80;0.88;;;;;;;19.14;36.73;92514.84;4937506;29;20052;-50